sensor_id;sensor_type;location;lat;lon;timestamp;temperature;humidity
70336;SHT31;57756;47.408;18.940;2022-08-11T00:01:36;20.44;53.25
70336;SHT31;57756;47.408;18.940;2022-08-11T00:04:03;20.41;53.45
70336;SHT31;57756;47.408;18.940;2022-08-11T00:06:37;20.41;53.23
70336;SHT31;57756;47.408;18.940;2022-08-11T00:09:06;20.36;53.46
70336;SHT31;57756;47.408;18.940;2022-08-11T00:11:37;20.36;53.51
70336;SHT31;57756;47.408;18.940;2022-08-11T00:19:24;20.27;54.02
70336;SHT31;57756;47.408;18.940;2022-08-11T00:21:50;20.24;54.23
70336;SHT31;57756;47.408;18.940;2022-08-11T00:24:18;20.23;54.68
70336;SHT31;57756;47.408;18.940;2022-08-11T00:26:52;20.23;54.84
70336;SHT31;57756;47.408;18.940;2022-08-11T00:29:18;20.22;54.84
70336;SHT31;57756;47.408;18.940;2022-08-11T00:31:50;20.19;55.02
70336;SHT31;57756;47.408;18.940;2022-08-11T00:34:19;20.16;54.75
70336;SHT31;57756;47.408;18.940;2022-08-11T00:36:50;20.15;54.79
70336;SHT31;57756;47.408;18.940;2022-08-11T00:39:20;20.13;55.80
70336;SHT31;57756;47.408;18.940;2022-08-11T00:42:03;20.10;55.18
70336;SHT31;57756;47.408;18.940;2022-08-11T01:06:31;20.26;54.67
70336;SHT31;57756;47.408;18.940;2022-08-11T01:59:28;20.27;55.37
70336;SHT31;57756;47.408;18.940;2022-08-11T02:05:25;20.26;55.31
70336;SHT31;57756;47.408;18.940;2022-08-11T02:11:30;20.22;55.14
70336;SHT31;57756;47.408;18.940;2022-08-11T02:25:44;20.02;56.99
70336;SHT31;57756;47.408;18.940;2022-08-11T02:28:25;20.00;56.88
70336;SHT31;57756;47.408;18.940;2022-08-11T02:36:56;20.05;56.86
70336;SHT31;57756;47.408;18.940;2022-08-11T02:39:31;20.06;56.85
70336;SHT31;57756;47.408;18.940;2022-08-11T02:48:49;20.08;56.80
70336;SHT31;57756;47.408;18.940;2022-08-11T02:54:12;20.00;57.19
70336;SHT31;57756;47.408;18.940;2022-08-11T02:59:43;19.97;57.42
70336;SHT31;57756;47.408;18.940;2022-08-11T03:05:20;19.88;58.42
70336;SHT31;57756;47.408;18.940;2022-08-11T03:08:13;19.83;57.67
70336;SHT31;57756;47.408;18.940;2022-08-11T03:13:47;19.82;58.55
70336;SHT31;57756;47.408;18.940;2022-08-11T03:16:51;19.78;58.73
70336;SHT31;57756;47.408;18.940;2022-08-11T03:27:51;19.78;57.92
70336;SHT31;57756;47.408;18.940;2022-08-11T03:30:31;19.74;59.51
70336;SHT31;57756;47.408;18.940;2022-08-11T03:36:27;19.71;59.19
70336;SHT31;57756;47.408;18.940;2022-08-11T03:55:27;19.75;58.75
70336;SHT31;57756;47.408;18.940;2022-08-11T04:03:59;19.83;58.62
70336;SHT31;57756;47.408;18.940;2022-08-11T04:32:16;20.00;61.52
70336;SHT31;57756;47.408;18.940;2022-08-11T04:43:20;20.12;59.04
70336;SHT31;57756;47.408;18.940;2022-08-11T04:51:58;20.68;57.85
70336;SHT31;57756;47.408;18.940;2022-08-11T05:07:28;21.80;54.23
70336;SHT31;57756;47.408;18.940;2022-08-11T05:12:41;22.38;53.23
70336;SHT31;57756;47.408;18.940;2022-08-11T05:15:12;22.73;52.93
70336;SHT31;57756;47.408;18.940;2022-08-11T05:18:04;23.12;52.35
70336;SHT31;57756;47.408;18.940;2022-08-11T05:20:54;23.31;50.89
70336;SHT31;57756;47.408;18.940;2022-08-11T05:23:42;23.51;49.51
70336;SHT31;57756;47.408;18.940;2022-08-11T05:26:38;23.63;49.79
70336;SHT31;57756;47.408;18.940;2022-08-11T05:29:48;23.80;48.86
70336;SHT31;57756;47.408;18.940;2022-08-11T05:32:39;24.16;49.16
70336;SHT31;57756;47.408;18.940;2022-08-11T05:35:30;23.94;47.64
70336;SHT31;57756;47.408;18.940;2022-08-11T05:37:57;24.21;48.51
70336;SHT31;57756;47.408;18.940;2022-08-11T05:40:49;24.51;47.79
70336;SHT31;57756;47.408;18.940;2022-08-11T05:43:39;24.45;47.31
70336;SHT31;57756;47.408;18.940;2022-08-11T05:46:26;24.90;46.66
70336;SHT31;57756;47.408;18.940;2022-08-11T05:49:12;24.82;45.87
70336;SHT31;57756;47.408;18.940;2022-08-11T05:51:57;25.02;46.47
70336;SHT31;57756;47.408;18.940;2022-08-11T05:54:41;25.44;45.26
70336;SHT31;57756;47.408;18.940;2022-08-11T05:57:31;25.91;45.36
70336;SHT31;57756;47.408;18.940;2022-08-11T05:59:59;26.20;43.56
70336;SHT31;57756;47.408;18.940;2022-08-11T06:02:26;26.23;43.24
70336;SHT31;57756;47.408;18.940;2022-08-11T06:04:56;26.25;43.05
70336;SHT31;57756;47.408;18.940;2022-08-11T06:07:26;26.51;43.60
70336;SHT31;57756;47.408;18.940;2022-08-11T06:09:54;26.23;44.14
70336;SHT31;57756;47.408;18.940;2022-08-11T06:14:48;26.15;43.78
70336;SHT31;57756;47.408;18.940;2022-08-11T06:17:21;26.53;43.43
70336;SHT31;57756;47.408;18.940;2022-08-11T06:19:48;26.98;42.12
70336;SHT31;57756;47.408;18.940;2022-08-11T06:22:19;27.38;41.47
70336;SHT31;57756;47.408;18.940;2022-08-11T06:24:59;26.74;42.04
70336;SHT31;57756;47.408;18.940;2022-08-11T06:27:27;26.37;42.48
70336;SHT31;57756;47.408;18.940;2022-08-11T06:29:54;26.40;42.77
70336;SHT31;57756;47.408;18.940;2022-08-11T06:32:44;27.02;42.50
70336;SHT31;57756;47.408;18.940;2022-08-11T06:35:44;27.40;41.97
70336;SHT31;57756;47.408;18.940;2022-08-11T06:38:07;27.47;41.55
70336;SHT31;57756;47.408;18.940;2022-08-11T06:40:45;27.80;40.06
70336;SHT31;57756;47.408;18.940;2022-08-11T06:46:33;28.34;38.72
70336;SHT31;57756;47.408;18.940;2022-08-11T06:49:06;28.08;39.48
70336;SHT31;57756;47.408;18.940;2022-08-11T06:51:54;27.97;40.22
70336;SHT31;57756;47.408;18.940;2022-08-11T06:54:21;28.14;41.30
70336;SHT31;57756;47.408;18.940;2022-08-11T06:56:47;28.19;40.11
70336;SHT31;57756;47.408;18.940;2022-08-11T06:59:33;27.93;39.27
70336;SHT31;57756;47.408;18.940;2022-08-11T07:02:25;28.11;40.77
70336;SHT31;57756;47.408;18.940;2022-08-11T07:04:59;27.76;39.26
70336;SHT31;57756;47.408;18.940;2022-08-11T07:13:34;29.48;37.77
70336;SHT31;57756;47.408;18.940;2022-08-11T07:16:25;29.54;36.82
70336;SHT31;57756;47.408;18.940;2022-08-11T07:18:55;29.58;36.17
70336;SHT31;57756;47.408;18.940;2022-08-11T07:21:42;29.82;35.21
70336;SHT31;57756;47.408;18.940;2022-08-11T07:25:14;30.18;34.66
70336;SHT31;57756;47.408;18.940;2022-08-11T07:28:17;29.93;35.82
70336;SHT31;57756;47.408;18.940;2022-08-11T07:31:07;30.47;34.98
70336;SHT31;57756;47.408;18.940;2022-08-11T07:34:14;30.30;34.01
70336;SHT31;57756;47.408;18.940;2022-08-11T07:36:49;30.41;34.74
70336;SHT31;57756;47.408;18.940;2022-08-11T07:39:18;30.07;34.87
70336;SHT31;57756;47.408;18.940;2022-08-11T07:41:45;30.52;34.29
70336;SHT31;57756;47.408;18.940;2022-08-11T07:44:13;30.13;34.59
70336;SHT31;57756;47.408;18.940;2022-08-11T07:46:43;30.48;35.42
70336;SHT31;57756;47.408;18.940;2022-08-11T07:49:34;31.00;33.83
70336;SHT31;57756;47.408;18.940;2022-08-11T07:52:19;30.78;34.09
70336;SHT31;57756;47.408;18.940;2022-08-11T07:55:10;30.41;33.83
70336;SHT31;57756;47.408;18.940;2022-08-11T07:57:36;30.51;33.90
70336;SHT31;57756;47.408;18.940;2022-08-11T08:00:21;30.64;32.53
70336;SHT31;57756;47.408;18.940;2022-08-11T08:03:07;31.06;33.50
70336;SHT31;57756;47.408;18.940;2022-08-11T08:05:52;31.48;33.27
70336;SHT31;57756;47.408;18.940;2022-08-11T08:08:39;31.99;32.88
70336;SHT31;57756;47.408;18.940;2022-08-11T08:11:25;32.19;31.09
70336;SHT31;57756;47.408;18.940;2022-08-11T08:14:10;32.18;30.77
70336;SHT31;57756;47.408;18.940;2022-08-11T08:16:54;32.09;30.64
70336;SHT31;57756;47.408;18.940;2022-08-11T08:19:42;31.86;30.96
70336;SHT31;57756;47.408;18.940;2022-08-11T08:22:10;31.88;31.77
70336;SHT31;57756;47.408;18.940;2022-08-11T08:24:38;31.70;30.92
70336;SHT31;57756;47.408;18.940;2022-08-11T08:27:06;31.46;34.24
70336;SHT31;57756;47.408;18.940;2022-08-11T08:29:34;32.08;31.16
70336;SHT31;57756;47.408;18.940;2022-08-11T08:32:19;31.98;33.34
70336;SHT31;57756;47.408;18.940;2022-08-11T08:34:48;32.28;32.75
70336;SHT31;57756;47.408;18.940;2022-08-11T08:37:18;32.61;31.95
70336;SHT31;57756;47.408;18.940;2022-08-11T08:39:45;32.91;31.38
70336;SHT31;57756;47.408;18.940;2022-08-11T08:42:15;32.71;31.31
70336;SHT31;57756;47.408;18.940;2022-08-11T08:44:45;33.14;31.25
70336;SHT31;57756;47.408;18.940;2022-08-11T08:47:15;33.12;30.90
70336;SHT31;57756;47.408;18.940;2022-08-11T08:49:47;32.22;31.61
70336;SHT31;57756;47.408;18.940;2022-08-11T08:52:17;31.80;34.39
70336;SHT31;57756;47.408;18.940;2022-08-11T08:54:44;32.33;34.79
70336;SHT31;57756;47.408;18.940;2022-08-11T08:57:14;32.59;31.55
70336;SHT31;57756;47.408;18.940;2022-08-11T08:59:43;33.01;32.49
70336;SHT31;57756;47.408;18.940;2022-08-11T09:02:10;33.41;30.78
70336;SHT31;57756;47.408;18.940;2022-08-11T09:04:38;33.29;30.92
70336;SHT31;57756;47.408;18.940;2022-08-11T09:07:12;33.63;30.57
70336;SHT31;57756;47.408;18.940;2022-08-11T09:09:46;34.01;30.98
70336;SHT31;57756;47.408;18.940;2022-08-11T09:12:13;34.11;31.41
70336;SHT31;57756;47.408;18.940;2022-08-11T09:14:41;33.66;30.91
70336;SHT31;57756;47.408;18.940;2022-08-11T09:17:29;33.83;30.14
70336;SHT31;57756;47.408;18.940;2022-08-11T09:20:00;33.97;28.75
70336;SHT31;57756;47.408;18.940;2022-08-11T09:22:30;34.27;29.16
70336;SHT31;57756;47.408;18.940;2022-08-11T09:25:15;33.72;28.50
70336;SHT31;57756;47.408;18.940;2022-08-11T09:28:00;33.10;29.74
70336;SHT31;57756;47.408;18.940;2022-08-11T09:30:27;33.49;30.71
70336;SHT31;57756;47.408;18.940;2022-08-11T09:32:55;33.96;30.02
70336;SHT31;57756;47.408;18.940;2022-08-11T09:35:32;34.62;28.55
70336;SHT31;57756;47.408;18.940;2022-08-11T09:37:59;34.88;28.23
70336;SHT31;57756;47.408;18.940;2022-08-11T09:40:48;34.51;28.14
70336;SHT31;57756;47.408;18.940;2022-08-11T09:43:16;35.13;28.08
70336;SHT31;57756;47.408;18.940;2022-08-11T09:46:01;35.41;28.02
70336;SHT31;57756;47.408;18.940;2022-08-11T09:48:35;35.62;27.34
70336;SHT31;57756;47.408;18.940;2022-08-11T09:51:02;35.87;28.17
70336;SHT31;57756;47.408;18.940;2022-08-11T09:53:31;35.84;26.51
70336;SHT31;57756;47.408;18.940;2022-08-11T09:55:58;35.95;24.91
70336;SHT31;57756;47.408;18.940;2022-08-11T09:58:24;36.29;26.43
70336;SHT31;57756;47.408;18.940;2022-08-11T10:00:55;35.96;26.47
70336;SHT31;57756;47.408;18.940;2022-08-11T10:03:26;36.46;24.87
70336;SHT31;57756;47.408;18.940;2022-08-11T10:05:55;35.44;25.39
70336;SHT31;57756;47.408;18.940;2022-08-11T10:08:42;34.31;26.03
70336;SHT31;57756;47.408;18.940;2022-08-11T10:11:11;34.16;26.32
70336;SHT31;57756;47.408;18.940;2022-08-11T10:13:42;33.73;27.63
70336;SHT31;57756;47.408;18.940;2022-08-11T10:16:28;33.42;25.99
70336;SHT31;57756;47.408;18.940;2022-08-11T10:18:54;34.66;26.40
70336;SHT31;57756;47.408;18.940;2022-08-11T10:24:01;32.12;28.52
70336;SHT31;57756;47.408;18.940;2022-08-11T10:26:47;31.68;29.93
70336;SHT31;57756;47.408;18.940;2022-08-11T10:29:31;32.74;29.70
70336;SHT31;57756;47.408;18.940;2022-08-11T10:32:24;33.66;27.87
70336;SHT31;57756;47.408;18.940;2022-08-11T10:35:08;33.66;26.90
70336;SHT31;57756;47.408;18.940;2022-08-11T10:37:38;33.72;26.52
70336;SHT31;57756;47.408;18.940;2022-08-11T10:40:06;33.43;26.51
70336;SHT31;57756;47.408;18.940;2022-08-11T10:42:33;33.51;26.94
70336;SHT31;57756;47.408;18.940;2022-08-11T10:45:18;34.23;26.29
70336;SHT31;57756;47.408;18.940;2022-08-11T10:48:04;34.69;29.85
70336;SHT31;57756;47.408;18.940;2022-08-11T10:50:30;34.98;27.88
70336;SHT31;57756;47.408;18.940;2022-08-11T10:53:16;35.04;26.25
70336;SHT31;57756;47.408;18.940;2022-08-11T10:56:01;35.65;25.61
70336;SHT31;57756;47.408;18.940;2022-08-11T10:58:46;35.73;25.03
70336;SHT31;57756;47.408;18.940;2022-08-11T11:01:35;35.82;24.99
70336;SHT31;57756;47.408;18.940;2022-08-11T11:04:07;36.46;24.89
70336;SHT31;57756;47.408;18.940;2022-08-11T11:09:43;35.25;23.62
70336;SHT31;57756;47.408;18.940;2022-08-11T11:12:22;35.95;22.95
70336;SHT31;57756;47.408;18.940;2022-08-11T11:15:07;34.95;24.55
70336;SHT31;57756;47.408;18.940;2022-08-11T11:18:00;34.47;25.87
70336;SHT31;57756;47.408;18.940;2022-08-11T11:20:34;34.28;25.26
70336;SHT31;57756;47.408;18.940;2022-08-11T11:23:17;34.44;24.82
70336;SHT31;57756;47.408;18.940;2022-08-11T11:26:12;35.22;24.87
70336;SHT31;57756;47.408;18.940;2022-08-11T11:31:58;34.07;24.44
70336;SHT31;57756;47.408;18.940;2022-08-11T11:37:22;34.86;24.37
70336;SHT31;57756;47.408;18.940;2022-08-11T11:39:48;35.53;23.04
70336;SHT31;57756;47.408;18.940;2022-08-11T11:42:16;34.88;23.03
70336;SHT31;57756;47.408;18.940;2022-08-11T11:44:44;33.26;25.02
70336;SHT31;57756;47.408;18.940;2022-08-11T11:47:11;32.78;25.69
70336;SHT31;57756;47.408;18.940;2022-08-11T11:49:40;32.19;25.00
70336;SHT31;57756;47.408;18.940;2022-08-11T11:52:13;32.81;25.76
70336;SHT31;57756;47.408;18.940;2022-08-11T11:54:39;34.47;25.19
70336;SHT31;57756;47.408;18.940;2022-08-11T11:57:06;34.66;25.10
70336;SHT31;57756;47.408;18.940;2022-08-11T11:59:55;35.13;24.51
70336;SHT31;57756;47.408;18.940;2022-08-11T12:02:40;35.25;25.30
70336;SHT31;57756;47.408;18.940;2022-08-11T12:05:08;35.55;25.26
70336;SHT31;57756;47.408;18.940;2022-08-11T12:07:35;35.77;23.93
70336;SHT31;57756;47.408;18.940;2022-08-11T12:10:20;35.65;24.17
70336;SHT31;57756;47.408;18.940;2022-08-11T12:12:46;33.86;25.18
70336;SHT31;57756;47.408;18.940;2022-08-11T12:15:31;33.43;28.45
70336;SHT31;57756;47.408;18.940;2022-08-11T12:17:58;33.17;25.74
70336;SHT31;57756;47.408;18.940;2022-08-11T12:20:25;33.00;26.49
70336;SHT31;57756;47.408;18.940;2022-08-11T12:22:52;33.38;29.34
70336;SHT31;57756;47.408;18.940;2022-08-11T12:25:37;33.59;27.94
70336;SHT31;57756;47.408;18.940;2022-08-11T12:28:22;33.08;26.86
70336;SHT31;57756;47.408;18.940;2022-08-11T12:30:50;32.84;26.32
70336;SHT31;57756;47.408;18.940;2022-08-11T12:33:17;32.88;27.74
70336;SHT31;57756;47.408;18.940;2022-08-11T12:35:44;33.34;27.36
70336;SHT31;57756;47.408;18.940;2022-08-11T12:38:11;33.43;27.17
70336;SHT31;57756;47.408;18.940;2022-08-11T12:40:38;32.92;27.07
70336;SHT31;57756;47.408;18.940;2022-08-11T12:43:26;33.56;26.58
70336;SHT31;57756;47.408;18.940;2022-08-11T12:46:17;32.92;26.85
70336;SHT31;57756;47.408;18.940;2022-08-11T12:48:46;32.43;27.43
70336;SHT31;57756;47.408;18.940;2022-08-11T12:51:44;32.92;28.26
70336;SHT31;57756;47.408;18.940;2022-08-11T12:54:44;32.84;27.52
70336;SHT31;57756;47.408;18.940;2022-08-11T12:57:18;32.57;27.34
70336;SHT31;57756;47.408;18.940;2022-08-11T13:00:07;32.57;28.94
70336;SHT31;57756;47.408;18.940;2022-08-11T13:02:53;32.46;27.28
70336;SHT31;57756;47.408;18.940;2022-08-11T13:05:38;31.77;28.39
70336;SHT31;57756;47.408;18.940;2022-08-11T13:08:06;31.78;28.29
70336;SHT31;57756;47.408;18.940;2022-08-11T13:10:32;31.77;29.39
70336;SHT31;57756;47.408;18.940;2022-08-11T13:13:18;31.74;28.76
70336;SHT31;57756;47.408;18.940;2022-08-11T13:15:47;32.01;28.64
70336;SHT31;57756;47.408;18.940;2022-08-11T13:18:20;32.01;28.96
70336;SHT31;57756;47.408;18.940;2022-08-11T13:20:50;31.82;27.67
70336;SHT31;57756;47.408;18.940;2022-08-11T13:23:16;31.85;29.04
70336;SHT31;57756;47.408;18.940;2022-08-11T13:25:42;32.13;28.77
70336;SHT31;57756;47.408;18.940;2022-08-11T13:28:09;31.63;28.45
70336;SHT31;57756;47.408;18.940;2022-08-11T13:30:37;31.65;30.55
70336;SHT31;57756;47.408;18.940;2022-08-11T13:33:22;31.63;30.09
70336;SHT31;57756;47.408;18.940;2022-08-11T13:35:50;31.04;28.94
70336;SHT31;57756;47.408;18.940;2022-08-11T13:38:19;30.79;29.53
70336;SHT31;57756;47.408;18.940;2022-08-11T13:40:47;30.91;30.00
70336;SHT31;57756;47.408;18.940;2022-08-11T13:43:14;30.89;30.84
70336;SHT31;57756;47.408;18.940;2022-08-11T13:45:41;31.10;30.45
70336;SHT31;57756;47.408;18.940;2022-08-11T13:48:08;31.10;30.01
70336;SHT31;57756;47.408;18.940;2022-08-11T13:50:35;31.10;30.34
70336;SHT31;57756;47.408;18.940;2022-08-11T13:53:24;31.19;30.12
70336;SHT31;57756;47.408;18.940;2022-08-11T13:55:51;31.25;31.10
70336;SHT31;57756;47.408;18.940;2022-08-11T13:58:17;30.93;29.74
70336;SHT31;57756;47.408;18.940;2022-08-11T14:00:48;30.54;31.68
70336;SHT31;57756;47.408;18.940;2022-08-11T14:03:17;30.03;32.20
70336;SHT31;57756;47.408;18.940;2022-08-11T14:05:48;29.90;32.01
70336;SHT31;57756;47.408;18.940;2022-08-11T14:08:18;29.97;32.72
70336;SHT31;57756;47.408;18.940;2022-08-11T14:10:47;30.14;32.51
70336;SHT31;57756;47.408;18.940;2022-08-11T14:13:33;30.12;32.76
70336;SHT31;57756;47.408;18.940;2022-08-11T14:16:05;29.99;31.90
70336;SHT31;57756;47.408;18.940;2022-08-11T14:18:33;30.12;32.53
70336;SHT31;57756;47.408;18.940;2022-08-11T14:21:02;30.23;33.51
70336;SHT31;57756;47.408;18.940;2022-08-11T14:24:03;30.13;32.45
70336;SHT31;57756;47.408;18.940;2022-08-11T14:26:30;30.05;33.20
70336;SHT31;57756;47.408;18.940;2022-08-11T14:29:12;30.00;33.35
70336;SHT31;57756;47.408;18.940;2022-08-11T14:31:50;29.42;33.33
70336;SHT31;57756;47.408;18.940;2022-08-11T14:34:21;29.62;32.31
70336;SHT31;57756;47.408;18.940;2022-08-11T14:36:53;29.76;32.27
70336;SHT31;57756;47.408;18.940;2022-08-11T14:39:27;29.79;34.04
70336;SHT31;57756;47.408;18.940;2022-08-11T14:41:58;29.95;32.23
70336;SHT31;57756;47.408;18.940;2022-08-11T14:44:50;29.78;33.36
70336;SHT31;57756;47.408;18.940;2022-08-11T14:47:36;29.82;33.72
70336;SHT31;57756;47.408;18.940;2022-08-11T14:50:05;29.92;33.72
70336;SHT31;57756;47.408;18.940;2022-08-11T14:52:32;29.44;32.94
70336;SHT31;57756;47.408;18.940;2022-08-11T14:55:00;29.52;33.97
70336;SHT31;57756;47.408;18.940;2022-08-11T14:57:44;29.11;33.55
70336;SHT31;57756;47.408;18.940;2022-08-11T15:00:13;29.18;33.35
70336;SHT31;57756;47.408;18.940;2022-08-11T15:02:44;29.25;35.01
70336;SHT31;57756;47.408;18.940;2022-08-11T15:05:29;29.32;34.63
70336;SHT31;57756;47.408;18.940;2022-08-11T15:07:57;29.38;36.36
70336;SHT31;57756;47.408;18.940;2022-08-11T15:10:23;29.52;36.27
70336;SHT31;57756;47.408;18.940;2022-08-11T15:12:50;29.65;35.28
70336;SHT31;57756;47.408;18.940;2022-08-11T15:15:16;29.47;33.72
70336;SHT31;57756;47.408;18.940;2022-08-11T15:18:02;29.41;34.29
70336;SHT31;57756;47.408;18.940;2022-08-11T15:20:30;29.48;34.73
70336;SHT31;57756;47.408;18.940;2022-08-11T15:23:15;29.41;35.93
70336;SHT31;57756;47.408;18.940;2022-08-11T15:26:03;29.38;36.61
70336;SHT31;57756;47.408;18.940;2022-08-11T15:28:35;29.41;35.47
70336;SHT31;57756;47.408;18.940;2022-08-11T15:31:22;29.08;33.61
70336;SHT31;57756;47.408;18.940;2022-08-11T15:33:56;28.83;34.51
70336;SHT31;57756;47.408;18.940;2022-08-11T15:36:43;28.93;34.02
70336;SHT31;57756;47.408;18.940;2022-08-11T15:39:50;28.99;33.87
70336;SHT31;57756;47.408;18.940;2022-08-11T15:43:00;28.77;33.17
70336;SHT31;57756;47.408;18.940;2022-08-11T15:45:47;28.89;34.01
70336;SHT31;57756;47.408;18.940;2022-08-11T15:48:29;28.97;33.82
70336;SHT31;57756;47.408;18.940;2022-08-11T15:51:16;28.96;33.99
70336;SHT31;57756;47.408;18.940;2022-08-11T15:53:49;28.89;35.36
70336;SHT31;57756;47.408;18.940;2022-08-11T15:56:16;28.73;35.13
70336;SHT31;57756;47.408;18.940;2022-08-11T15:58:46;28.62;34.32
70336;SHT31;57756;47.408;18.940;2022-08-11T16:01:32;28.56;34.10
70336;SHT31;57756;47.408;18.940;2022-08-11T16:04:21;28.52;33.84
70336;SHT31;57756;47.408;18.940;2022-08-11T16:06:58;28.38;33.78
70336;SHT31;57756;47.408;18.940;2022-08-11T16:09:33;28.35;35.40
70336;SHT31;57756;47.408;18.940;2022-08-11T16:12:02;28.31;33.45
70336;SHT31;57756;47.408;18.940;2022-08-11T16:14:35;28.28;33.50
70336;SHT31;57756;47.408;18.940;2022-08-11T16:17:23;28.21;34.63
70336;SHT31;57756;47.408;18.940;2022-08-11T16:19:51;28.05;34.88
70336;SHT31;57756;47.408;18.940;2022-08-11T16:22:29;28.02;35.01
70336;SHT31;57756;47.408;18.940;2022-08-11T16:25:05;28.00;35.22
70336;SHT31;57756;47.408;18.940;2022-08-11T16:27:40;27.90;34.85
70336;SHT31;57756;47.408;18.940;2022-08-11T16:30:07;27.87;35.12
70336;SHT31;57756;47.408;18.940;2022-08-11T16:32:35;27.87;35.85
70336;SHT31;57756;47.408;18.940;2022-08-11T16:35:08;27.84;35.71
70336;SHT31;57756;47.408;18.940;2022-08-11T16:37:53;27.53;34.69
70336;SHT31;57756;47.408;18.940;2022-08-11T16:40:38;27.57;34.97
70336;SHT31;57756;47.408;18.940;2022-08-11T16:43:06;27.59;36.24
70336;SHT31;57756;47.408;18.940;2022-08-11T16:45:52;27.49;36.74
70336;SHT31;57756;47.408;18.940;2022-08-11T16:48:38;27.45;35.86
70336;SHT31;57756;47.408;18.940;2022-08-11T16:51:07;27.16;36.75
70336;SHT31;57756;47.408;18.940;2022-08-11T16:53:34;27.22;37.28
70336;SHT31;57756;47.408;18.940;2022-08-11T16:56:02;27.16;37.61
70336;SHT31;57756;47.408;18.940;2022-08-11T16:58:33;27.08;38.57
70336;SHT31;57756;47.408;18.940;2022-08-11T17:01:19;27.09;38.68
70336;SHT31;57756;47.408;18.940;2022-08-11T17:03:51;27.05;37.79
70336;SHT31;57756;47.408;18.940;2022-08-11T17:06:38;26.95;38.47
70336;SHT31;57756;47.408;18.940;2022-08-11T17:09:24;26.88;39.74
70336;SHT31;57756;47.408;18.940;2022-08-11T17:12:10;26.81;39.43
70336;SHT31;57756;47.408;18.940;2022-08-11T17:14:59;26.81;38.92
70336;SHT31;57756;47.408;18.940;2022-08-11T17:17:27;26.68;38.57
70336;SHT31;57756;47.408;18.940;2022-08-11T17:19:58;26.64;38.78
70336;SHT31;57756;47.408;18.940;2022-08-11T17:22:27;26.64;39.52
70336;SHT31;57756;47.408;18.940;2022-08-11T17:25:14;26.60;38.84
70336;SHT31;57756;47.408;18.940;2022-08-11T17:27:41;26.53;38.93
70336;SHT31;57756;47.408;18.940;2022-08-11T17:30:09;26.47;39.50
70336;SHT31;57756;47.408;18.940;2022-08-11T17:32:38;26.40;39.43
70336;SHT31;57756;47.408;18.940;2022-08-11T17:35:25;26.13;39.81
70336;SHT31;57756;47.408;18.940;2022-08-11T17:40:41;25.67;41.30
70336;SHT31;57756;47.408;18.940;2022-08-11T17:43:28;25.43;41.92
70336;SHT31;57756;47.408;18.940;2022-08-11T17:46:14;25.02;42.91
70336;SHT31;57756;47.408;18.940;2022-08-11T17:48:59;24.68;43.43
70336;SHT31;57756;47.408;18.940;2022-08-11T17:51:27;24.44;44.24
70336;SHT31;57756;47.408;18.940;2022-08-11T17:54:26;24.44;44.35
70336;SHT31;57756;47.408;18.940;2022-08-11T17:57:10;24.32;44.21
70336;SHT31;57756;47.408;18.940;2022-08-11T17:59:56;24.22;44.20
70336;SHT31;57756;47.408;18.940;2022-08-11T18:02:27;24.21;44.33
70336;SHT31;57756;47.408;18.940;2022-08-11T18:05:13;24.04;44.77
70336;SHT31;57756;47.408;18.940;2022-08-11T18:07:41;24.01;45.27
70336;SHT31;57756;47.408;18.940;2022-08-11T18:10:29;23.90;45.35
70336;SHT31;57756;47.408;18.940;2022-08-11T18:13:15;23.89;45.64
70336;SHT31;57756;47.408;18.940;2022-08-11T18:15:59;23.83;45.89
70336;SHT31;57756;47.408;18.940;2022-08-11T18:18:44;23.84;46.37
70336;SHT31;57756;47.408;18.940;2022-08-11T18:21:29;23.75;46.28
70336;SHT31;57756;47.408;18.940;2022-08-11T18:24:15;23.72;46.58
70336;SHT31;57756;47.408;18.940;2022-08-11T18:27:03;23.69;46.58
70336;SHT31;57756;47.408;18.940;2022-08-11T18:29:49;23.70;46.60
70336;SHT31;57756;47.408;18.940;2022-08-11T18:32:36;23.65;46.96
70336;SHT31;57756;47.408;18.940;2022-08-11T18:35:22;23.66;47.24
70336;SHT31;57756;47.408;18.940;2022-08-11T18:38:09;23.61;47.32
70336;SHT31;57756;47.408;18.940;2022-08-11T18:40:54;23.48;48.29
70336;SHT31;57756;47.408;18.940;2022-08-11T18:43:42;23.38;47.82
70336;SHT31;57756;47.408;18.940;2022-08-11T18:46:30;23.41;47.69
70336;SHT31;57756;47.408;18.940;2022-08-11T18:49:20;23.34;47.99
70336;SHT31;57756;47.408;18.940;2022-08-11T18:52:05;23.27;48.37
70336;SHT31;57756;47.408;18.940;2022-08-11T18:54:51;23.22;48.38
70336;SHT31;57756;47.408;18.940;2022-08-11T18:57:37;23.19;48.84
70336;SHT31;57756;47.408;18.940;2022-08-11T19:00:24;23.08;48.34
70336;SHT31;57756;47.408;18.940;2022-08-11T19:03:10;23.01;48.36
70336;SHT31;57756;47.408;18.940;2022-08-11T19:05:57;23.01;49.00
70336;SHT31;57756;47.408;18.940;2022-08-11T19:08:46;22.98;48.98
70336;SHT31;57756;47.408;18.940;2022-08-11T19:11:32;22.97;49.18
70336;SHT31;57756;47.408;18.940;2022-08-11T19:14:18;22.97;49.04
70336;SHT31;57756;47.408;18.940;2022-08-11T19:17:05;22.84;49.40
70336;SHT31;57756;47.408;18.940;2022-08-11T19:19:51;22.83;49.02
70336;SHT31;57756;47.408;18.940;2022-08-11T19:22:36;22.83;49.50
70336;SHT31;57756;47.408;18.940;2022-08-11T19:25:21;22.83;48.92
70336;SHT31;57756;47.408;18.940;2022-08-11T19:28:06;22.81;49.45
70336;SHT31;57756;47.408;18.940;2022-08-11T19:30:52;22.80;48.98
70336;SHT31;57756;47.408;18.940;2022-08-11T19:33:37;22.79;48.86
70336;SHT31;57756;47.408;18.940;2022-08-11T19:36:23;22.76;48.69
70336;SHT31;57756;47.408;18.940;2022-08-11T19:39:08;22.73;48.79
70336;SHT31;57756;47.408;18.940;2022-08-11T19:41:54;22.64;48.89
70336;SHT31;57756;47.408;18.940;2022-08-11T19:44:40;22.64;49.14
70336;SHT31;57756;47.408;18.940;2022-08-11T19:47:25;22.70;49.36
70336;SHT31;57756;47.408;18.940;2022-08-11T19:50:12;22.64;48.88
70336;SHT31;57756;47.408;18.940;2022-08-11T19:52:58;22.64;48.94
70336;SHT31;57756;47.408;18.940;2022-08-11T19:55:45;22.62;49.00
70336;SHT31;57756;47.408;18.940;2022-08-11T19:58:29;22.60;48.69
70336;SHT31;57756;47.408;18.940;2022-08-11T20:01:13;22.55;48.77
70336;SHT31;57756;47.408;18.940;2022-08-11T20:03:57;22.53;48.60
70336;SHT31;57756;47.408;18.940;2022-08-11T20:06:41;22.46;48.95
70336;SHT31;57756;47.408;18.940;2022-08-11T20:09:25;22.42;48.89
70336;SHT31;57756;47.408;18.940;2022-08-11T20:12:10;22.43;48.91
70336;SHT31;57756;47.408;18.940;2022-08-11T20:14:55;22.41;49.43
70336;SHT31;57756;47.408;18.940;2022-08-11T20:17:42;22.39;48.97